Kuching, Malaysia
Current Conditions -  °F | °C
As of 10:00 AM on Sunday 23 Nov 2014 (Local Time) from WBGG Reporting Station
Light Rain Light Rain  
Wind Chill: 75°   Ceiling: 15000
Heat Index: 75°   Visibility: 5mi
Dew Point: 73°   Wind: 2mph
Humidity: 94%   Direction: 200°SSW
Pressure: 29.85"   Gusts: NA
Location:  1.55°N, 110.34°E
Report Text: WBGG 230200Z 20002KT 8000 -RA FEW001 SCT020 BKN150 24/23 Q1011 NOSIG
Loading
Personal Weather Stations






























Interactive Weather Map New forecast layout! Learn more

10-Day Weather Forecast

Advertisements
Track Severe Weather on mobile